Terminal Aerodrome Forecast
Issued by NWS

Home | Current Version | Previous Version | Graphics & Text | Print | Product List | Glossary On
Versions: 1 2 3 4 5 6 7 8 9 10 11 12 13 14 15 16
261
FTUS43 KABR 271503 AAB
TAFATY
TAF AMD
KATY 271503Z 2715/2812 34020KT P6SM OVC016
     FM272300 34010KT P6SM BKN020
     FM280000 34009KT P6SM SCT020
     FM280400 32004KT P6SM FEW060=

USA.gov is the U.S. government's official web portal to all federal, state and local government web resources and services.